sensor_id;sensor_type;location;lat;lon;timestamp;temperature;humidity
67901;DHT22;54700;51.796;10.956;2023-02-25T00:00:19;3.60;96.80
67901;DHT22;54700;51.796;10.956;2023-02-25T00:02:46;3.60;96.70
67901;DHT22;54700;51.796;10.956;2023-02-25T00:05:14;3.50;97.20
67901;DHT22;54700;51.796;10.956;2023-02-25T00:07:41;3.50;96.90
67901;DHT22;54700;51.796;10.956;2023-02-25T00:10:09;3.50;96.60
67901;DHT22;54700;51.796;10.956;2023-02-25T00:12:38;3.50;96.50
67901;DHT22;54700;51.796;10.956;2023-02-25T00:15:06;3.50;96.00
67901;DHT22;54700;51.796;10.956;2023-02-25T00:17:34;3.60;96.00
67901;DHT22;54700;51.796;10.956;2023-02-25T00:20:04;3.60;96.00
67901;DHT22;54700;51.796;10.956;2023-02-25T00:22:34;3.70;95.80
67901;DHT22;54700;51.796;10.956;2023-02-25T00:25:01;3.70;95.70
67901;DHT22;54700;51.796;10.956;2023-02-25T00:27:29;3.70;95.90
67901;DHT22;54700;51.796;10.956;2023-02-25T00:29:55;3.70;95.80
67901;DHT22;54700;51.796;10.956;2023-02-25T00:32:23;3.80;95.60
67901;DHT22;54700;51.796;10.956;2023-02-25T00:34:51;3.70;95.80
67901;DHT22;54700;51.796;10.956;2023-02-25T00:37:18;3.80;96.00
67901;DHT22;54700;51.796;10.956;2023-02-25T00:39:45;3.80;96.00
67901;DHT22;54700;51.796;10.956;2023-02-25T00:42:12;3.80;96.80
67901;DHT22;54700;51.796;10.956;2023-02-25T00:44:42;3.80;97.20
67901;DHT22;54700;51.796;10.956;2023-02-25T00:47:09;3.70;97.40
67901;DHT22;54700;51.796;10.956;2023-02-25T00:49:36;3.70;97.80
67901;DHT22;54700;51.796;10.956;2023-02-25T00:52:04;3.60;97.80
67901;DHT22;54700;51.796;10.956;2023-02-25T00:54:32;3.60;98.60
67901;DHT22;54700;51.796;10.956;2023-02-25T00:56:59;3.60;99.20
67901;DHT22;54700;51.796;10.956;2023-02-25T00:59:26;3.60;99.40
67901;DHT22;54700;51.796;10.956;2023-02-25T01:01:53;3.60;99.20
67901;DHT22;54700;51.796;10.956;2023-02-25T01:04:20;3.60;99.40
67901;DHT22;54700;51.796;10.956;2023-02-25T01:06:46;3.50;99.70
67901;DHT22;54700;51.796;10.956;2023-02-25T01:09:15;3.60;99.70
67901;DHT22;54700;51.796;10.956;2023-02-25T01:11:42;3.50;99.90
67901;DHT22;54700;51.796;10.956;2023-02-25T01:14:11;3.50;99.90
67901;DHT22;54700;51.796;10.956;2023-02-25T01:16:39;3.50;99.70
67901;DHT22;54700;51.796;10.956;2023-02-25T01:19:07;3.50;99.50
67901;DHT22;54700;51.796;10.956;2023-02-25T01:21:38;3.50;99.90
67901;DHT22;54700;51.796;10.956;2023-02-25T01:24:09;3.40;99.90
67901;DHT22;54700;51.796;10.956;2023-02-25T01:26:40;3.40;99.90
67901;DHT22;54700;51.796;10.956;2023-02-25T01:29:08;3.40;99.90
67901;DHT22;54700;51.796;10.956;2023-02-25T01:31:39;3.40;99.90
67901;DHT22;54700;51.796;10.956;2023-02-25T01:34:11;3.40;99.90
67901;DHT22;54700;51.796;10.956;2023-02-25T01:36:39;3.30;99.90
67901;DHT22;54700;51.796;10.956;2023-02-25T01:39:07;3.30;99.90
67901;DHT22;54700;51.796;10.956;2023-02-25T01:41:35;3.30;99.90
67901;DHT22;54700;51.796;10.956;2023-02-25T01:44:05;3.30;99.90
67901;DHT22;54700;51.796;10.956;2023-02-25T01:46:35;3.30;99.90
67901;DHT22;54700;51.796;10.956;2023-02-25T01:49:03;3.30;99.90
67901;DHT22;54700;51.796;10.956;2023-02-25T01:51:38;3.10;99.90
67901;DHT22;54700;51.796;10.956;2023-02-25T01:54:06;3.10;99.90
67901;DHT22;54700;51.796;10.956;2023-02-25T01:56:37;3.00;99.90
67901;DHT22;54700;51.796;10.956;2023-02-25T01:59:07;3.00;99.90
67901;DHT22;54700;51.796;10.956;2023-02-25T02:01:35;2.90;99.90
67901;DHT22;54700;51.796;10.956;2023-02-25T02:04:06;2.80;99.90
67901;DHT22;54700;51.796;10.956;2023-02-25T02:06:36;2.70;99.90
67901;DHT22;54700;51.796;10.956;2023-02-25T02:09:06;2.70;99.90
67901;DHT22;54700;51.796;10.956;2023-02-25T02:11:36;2.80;99.90
67901;DHT22;54700;51.796;10.956;2023-02-25T02:14:03;2.90;99.90
67901;DHT22;54700;51.796;10.956;2023-02-25T02:16:47;3.00;99.90
67901;DHT22;54700;51.796;10.956;2023-02-25T02:19:47;3.00;99.90
67901;DHT22;54700;51.796;10.956;2023-02-25T02:22:34;3.10;99.90
67901;DHT22;54700;51.796;10.956;2023-02-25T02:25:14;3.10;99.90
67901;DHT22;54700;51.796;10.956;2023-02-25T02:28:14;3.10;99.90
67901;DHT22;54700;51.796;10.956;2023-02-25T02:31:12;3.10;99.90
67901;DHT22;54700;51.796;10.956;2023-02-25T02:33:51;3.10;99.90
67901;DHT22;54700;51.796;10.956;2023-02-25T02:36:27;3.20;99.90
67901;DHT22;54700;51.796;10.956;2023-02-25T02:39:02;3.20;99.90
67901;DHT22;54700;51.796;10.956;2023-02-25T02:41:39;3.10;99.90
67901;DHT22;54700;51.796;10.956;2023-02-25T02:44:14;3.20;99.90
67901;DHT22;54700;51.796;10.956;2023-02-25T02:46:46;3.10;99.90
67901;DHT22;54700;51.796;10.956;2023-02-25T02:49:17;3.10;99.90
67901;DHT22;54700;51.796;10.956;2023-02-25T02:51:50;3.00;99.90
67901;DHT22;54700;51.796;10.956;2023-02-25T02:54:23;2.90;99.90
67901;DHT22;54700;51.796;10.956;2023-02-25T02:56:53;2.90;99.90
67901;DHT22;54700;51.796;10.956;2023-02-25T02:59:22;2.80;99.90
67901;DHT22;54700;51.796;10.956;2023-02-25T03:01:55;2.80;99.90
67901;DHT22;54700;51.796;10.956;2023-02-25T03:04:26;2.80;99.90
67901;DHT22;54700;51.796;10.956;2023-02-25T03:06:58;2.80;99.90
67901;DHT22;54700;51.796;10.956;2023-02-25T03:09:30;2.80;99.90
67901;DHT22;54700;51.796;10.956;2023-02-25T03:12:01;2.80;99.90
67901;DHT22;54700;51.796;10.956;2023-02-25T03:14:27;2.80;99.90
67901;DHT22;54700;51.796;10.956;2023-02-25T03:16:59;2.80;99.90
67901;DHT22;54700;51.796;10.956;2023-02-25T03:19:31;2.80;99.90
67901;DHT22;54700;51.796;10.956;2023-02-25T03:22:03;2.80;99.90
67901;DHT22;54700;51.796;10.956;2023-02-25T03:24:34;2.80;99.90
67901;DHT22;54700;51.796;10.956;2023-02-25T03:27:24;2.80;99.90
67901;DHT22;54700;51.796;10.956;2023-02-25T03:29:54;2.60;99.90
67901;DHT22;54700;51.796;10.956;2023-02-25T03:32:28;2.60;99.90
67901;DHT22;54700;51.796;10.956;2023-02-25T03:34:57;2.40;99.90
67901;DHT22;54700;51.796;10.956;2023-02-25T03:37:29;2.30;99.90
67901;DHT22;54700;51.796;10.956;2023-02-25T03:39:59;2.10;99.90
67901;DHT22;54700;51.796;10.956;2023-02-25T03:42:35;1.90;99.90
67901;DHT22;54700;51.796;10.956;2023-02-25T03:45:07;1.80;99.90
67901;DHT22;54700;51.796;10.956;2023-02-25T03:47:38;1.60;99.90
67901;DHT22;54700;51.796;10.956;2023-02-25T03:50:08;1.50;99.90
67901;DHT22;54700;51.796;10.956;2023-02-25T03:52:39;1.40;99.90
67901;DHT22;54700;51.796;10.956;2023-02-25T03:55:07;1.30;99.90
67901;DHT22;54700;51.796;10.956;2023-02-25T03:57:39;1.20;99.90
67901;DHT22;54700;51.796;10.956;2023-02-25T04:00:11;1.20;99.90
67901;DHT22;54700;51.796;10.956;2023-02-25T04:02:45;1.10;99.90
67901;DHT22;54700;51.796;10.956;2023-02-25T04:05:12;1.10;99.90
67901;DHT22;54700;51.796;10.956;2023-02-25T04:07:46;1.10;99.90
67901;DHT22;54700;51.796;10.956;2023-02-25T04:10:21;1.10;99.90
67901;DHT22;54700;51.796;10.956;2023-02-25T04:12:52;1.20;99.90
67901;DHT22;54700;51.796;10.956;2023-02-25T04:15:19;1.20;99.90
67901;DHT22;54700;51.796;10.956;2023-02-25T04:17:49;1.20;99.90
67901;DHT22;54700;51.796;10.956;2023-02-25T04:20:19;1.30;99.90
67901;DHT22;54700;51.796;10.956;2023-02-25T04:22:49;1.40;99.90
67901;DHT22;54700;51.796;10.956;2023-02-25T04:25:16;1.50;99.90
67901;DHT22;54700;51.796;10.956;2023-02-25T04:27:43;1.60;99.90
67901;DHT22;54700;51.796;10.956;2023-02-25T04:30:10;1.70;99.90
67901;DHT22;54700;51.796;10.956;2023-02-25T04:32:38;1.80;99.90
67901;DHT22;54700;51.796;10.956;2023-02-25T04:35:09;1.90;99.90
67901;DHT22;54700;51.796;10.956;2023-02-25T04:37:37;1.90;99.90
67901;DHT22;54700;51.796;10.956;2023-02-25T04:40:08;2.00;99.90
67901;DHT22;54700;51.796;10.956;2023-02-25T04:42:38;2.00;99.90
67901;DHT22;54700;51.796;10.956;2023-02-25T04:45:06;2.00;99.90
67901;DHT22;54700;51.796;10.956;2023-02-25T04:47:40;2.10;99.90
67901;DHT22;54700;51.796;10.956;2023-02-25T04:50:09;2.10;99.90
67901;DHT22;54700;51.796;10.956;2023-02-25T04:52:37;2.00;99.90
67901;DHT22;54700;51.796;10.956;2023-02-25T04:55:05;2.00;99.90
67901;DHT22;54700;51.796;10.956;2023-02-25T04:57:34;2.00;99.90
67901;DHT22;54700;51.796;10.956;2023-02-25T05:00:02;2.00;99.90
67901;DHT22;54700;51.796;10.956;2023-02-25T05:02:35;2.00;99.90
67901;DHT22;54700;51.796;10.956;2023-02-25T05:05:05;2.00;99.90
67901;DHT22;54700;51.796;10.956;2023-02-25T05:07:33;2.00;99.90
67901;DHT22;54700;51.796;10.956;2023-02-25T05:10:00;2.00;99.90
67901;DHT22;54700;51.796;10.956;2023-02-25T05:12:27;2.00;99.90
67901;DHT22;54700;51.796;10.956;2023-02-25T05:14:54;2.00;99.90
67901;DHT22;54700;51.796;10.956;2023-02-25T05:17:31;2.00;99.90
67901;DHT22;54700;51.796;10.956;2023-02-25T05:19:58;2.00;99.90
67901;DHT22;54700;51.796;10.956;2023-02-25T05:22:25;2.00;99.90
67901;DHT22;54700;51.796;10.956;2023-02-25T05:24:54;2.00;99.90
67901;DHT22;54700;51.796;10.956;2023-02-25T05:27:21;2.00;99.90
67901;DHT22;54700;51.796;10.956;2023-02-25T05:29:48;2.00;99.90
67901;DHT22;54700;51.796;10.956;2023-02-25T05:32:16;2.00;99.90
67901;DHT22;54700;51.796;10.956;2023-02-25T05:34:42;1.90;99.90
67901;DHT22;54700;51.796;10.956;2023-02-25T05:37:09;1.90;99.90
67901;DHT22;54700;51.796;10.956;2023-02-25T05:39:36;1.90;99.90
67901;DHT22;54700;51.796;10.956;2023-02-25T05:42:05;1.90;99.90
67901;DHT22;54700;51.796;10.956;2023-02-25T05:44:32;2.00;99.90
67901;DHT22;54700;51.796;10.956;2023-02-25T05:46:58;2.00;99.90
67901;DHT22;54700;51.796;10.956;2023-02-25T05:49:25;2.00;99.90
67901;DHT22;54700;51.796;10.956;2023-02-25T05:51:52;2.00;99.90
67901;DHT22;54700;51.796;10.956;2023-02-25T05:54:19;2.00;99.90
67901;DHT22;54700;51.796;10.956;2023-02-25T05:56:47;2.00;99.90
67901;DHT22;54700;51.796;10.956;2023-02-25T05:59:17;2.00;99.90
67901;DHT22;54700;51.796;10.956;2023-02-25T06:01:44;2.00;99.90
67901;DHT22;54700;51.796;10.956;2023-02-25T06:04:11;2.00;99.90
67901;DHT22;54700;51.796;10.956;2023-02-25T06:06:38;2.00;99.90
67901;DHT22;54700;51.796;10.956;2023-02-25T06:09:06;2.00;99.90
67901;DHT22;54700;51.796;10.956;2023-02-25T06:11:33;2.00;99.90
67901;DHT22;54700;51.796;10.956;2023-02-25T06:14:00;2.00;99.90
67901;DHT22;54700;51.796;10.956;2023-02-25T06:16:29;2.00;99.90
67901;DHT22;54700;51.796;10.956;2023-02-25T06:18:59;2.00;99.90
67901;DHT22;54700;51.796;10.956;2023-02-25T06:21:31;2.00;99.90
67901;DHT22;54700;51.796;10.956;2023-02-25T06:23:59;2.00;99.90
67901;DHT22;54700;51.796;10.956;2023-02-25T06:26:27;2.00;99.90
67901;DHT22;54700;51.796;10.956;2023-02-25T06:28:55;2.00;99.90
67901;DHT22;54700;51.796;10.956;2023-02-25T06:31:22;1.90;99.90
67901;DHT22;54700;51.796;10.956;2023-02-25T06:33:51;1.90;99.90
67901;DHT22;54700;51.796;10.956;2023-02-25T06:36:19;1.80;99.90
67901;DHT22;54700;51.796;10.956;2023-02-25T06:38:46;1.70;99.90
67901;DHT22;54700;51.796;10.956;2023-02-25T06:41:13;1.70;99.90
67901;DHT22;54700;51.796;10.956;2023-02-25T06:43:42;1.60;99.90
67901;DHT22;54700;51.796;10.956;2023-02-25T06:46:10;1.50;99.90
67901;DHT22;54700;51.796;10.956;2023-02-25T06:48:39;1.50;99.90
67901;DHT22;54700;51.796;10.956;2023-02-25T06:51:11;1.50;99.90
67901;DHT22;54700;51.796;10.956;2023-02-25T06:53:39;1.40;99.90
67901;DHT22;54700;51.796;10.956;2023-02-25T06:56:07;1.40;99.90
67901;DHT22;54700;51.796;10.956;2023-02-25T06:58:36;1.40;99.90
67901;DHT22;54700;51.796;10.956;2023-02-25T07:01:04;1.30;99.90
67901;DHT22;54700;51.796;10.956;2023-02-25T07:03:32;1.40;99.90
67901;DHT22;54700;51.796;10.956;2023-02-25T07:06:01;1.30;99.90
67901;DHT22;54700;51.796;10.956;2023-02-25T07:08:29;1.30;99.90
67901;DHT22;54700;51.796;10.956;2023-02-25T07:11:08;1.30;99.90
67901;DHT22;54700;51.796;10.956;2023-02-25T07:13:36;1.30;99.90
67901;DHT22;54700;51.796;10.956;2023-02-25T07:16:03;1.30;99.90
67901;DHT22;54700;51.796;10.956;2023-02-25T07:18:30;1.30;99.90
67901;DHT22;54700;51.796;10.956;2023-02-25T07:20:57;1.30;99.90
67901;DHT22;54700;51.796;10.956;2023-02-25T07:23:24;1.30;99.90
67901;DHT22;54700;51.796;10.956;2023-02-25T07:25:53;1.30;99.90
67901;DHT22;54700;51.796;10.956;2023-02-25T07:28:20;1.30;99.90
67901;DHT22;54700;51.796;10.956;2023-02-25T07:30:47;1.30;99.90
67901;DHT22;54700;51.796;10.956;2023-02-25T07:33:14;1.20;99.90
67901;DHT22;54700;51.796;10.956;2023-02-25T07:35:41;1.20;99.90
67901;DHT22;54700;51.796;10.956;2023-02-25T07:38:07;1.20;99.90
67901;DHT22;54700;51.796;10.956;2023-02-25T07:40:37;1.20;99.90
67901;DHT22;54700;51.796;10.956;2023-02-25T07:43:06;1.20;99.90
67901;DHT22;54700;51.796;10.956;2023-02-25T07:45:33;1.20;99.90
67901;DHT22;54700;51.796;10.956;2023-02-25T07:48:00;1.10;99.90
67901;DHT22;54700;51.796;10.956;2023-02-25T07:50:27;1.10;99.90
67901;DHT22;54700;51.796;10.956;2023-02-25T07:52:54;1.00;99.90
67901;DHT22;54700;51.796;10.956;2023-02-25T07:55:21;1.00;99.90
67901;DHT22;54700;51.796;10.956;2023-02-25T07:57:49;1.00;99.90
67901;DHT22;54700;51.796;10.956;2023-02-25T08:00:18;1.00;99.90
67901;DHT22;54700;51.796;10.956;2023-02-25T08:02:45;1.00;99.90
67901;DHT22;54700;51.796;10.956;2023-02-25T08:05:14;1.00;99.90
67901;DHT22;54700;51.796;10.956;2023-02-25T08:07:46;1.00;99.90
67901;DHT22;54700;51.796;10.956;2023-02-25T08:10:13;1.00;99.90
67901;DHT22;54700;51.796;10.956;2023-02-25T08:12:39;1.00;99.90
67901;DHT22;54700;51.796;10.956;2023-02-25T08:15:06;1.10;99.90
67901;DHT22;54700;51.796;10.956;2023-02-25T08:17:36;1.10;99.90
67901;DHT22;54700;51.796;10.956;2023-02-25T08:20:04;1.20;99.90
67901;DHT22;54700;51.796;10.956;2023-02-25T08:22:33;1.20;99.90
67901;DHT22;54700;51.796;10.956;2023-02-25T08:25:00;1.30;99.90
67901;DHT22;54700;51.796;10.956;2023-02-25T08:27:30;1.30;99.90
67901;DHT22;54700;51.796;10.956;2023-02-25T08:29:58;1.40;99.90
67901;DHT22;54700;51.796;10.956;2023-02-25T08:32:25;1.50;99.90
67901;DHT22;54700;51.796;10.956;2023-02-25T08:34:57;1.50;99.90
67901;DHT22;54700;51.796;10.956;2023-02-25T08:37:24;1.50;99.90
67901;DHT22;54700;51.796;10.956;2023-02-25T08:39:52;1.50;99.90
67901;DHT22;54700;51.796;10.956;2023-02-25T08:42:19;1.40;99.90
67901;DHT22;54700;51.796;10.956;2023-02-25T08:44:46;1.30;99.90
67901;DHT22;54700;51.796;10.956;2023-02-25T08:47:13;1.30;99.90
67901;DHT22;54700;51.796;10.956;2023-02-25T08:49:41;1.30;99.90
67901;DHT22;54700;51.796;10.956;2023-02-25T08:52:09;1.30;99.90
67901;DHT22;54700;51.796;10.956;2023-02-25T08:54:38;1.30;99.90
67901;DHT22;54700;51.796;10.956;2023-02-25T08:57:05;1.30;99.90
67901;DHT22;54700;51.796;10.956;2023-02-25T08:59:32;1.30;99.90
67901;DHT22;54700;51.796;10.956;2023-02-25T09:02:01;1.30;99.90
67901;DHT22;54700;51.796;10.956;2023-02-25T09:04:28;1.40;99.90
67901;DHT22;54700;51.796;10.956;2023-02-25T09:06:55;1.40;99.90
67901;DHT22;54700;51.796;10.956;2023-02-25T09:09:24;1.40;99.90
67901;DHT22;54700;51.796;10.956;2023-02-25T09:11:54;1.40;99.90
67901;DHT22;54700;51.796;10.956;2023-02-25T09:14:21;1.40;99.90
67901;DHT22;54700;51.796;10.956;2023-02-25T09:16:48;1.40;99.90
67901;DHT22;54700;51.796;10.956;2023-02-25T09:19:16;1.40;99.90
67901;DHT22;54700;51.796;10.956;2023-02-25T09:21:44;1.50;99.90
67901;DHT22;54700;51.796;10.956;2023-02-25T09:24:14;1.50;99.90
67901;DHT22;54700;51.796;10.956;2023-02-25T09:26:45;1.60;99.90
67901;DHT22;54700;51.796;10.956;2023-02-25T09:29:12;1.60;99.90
67901;DHT22;54700;51.796;10.956;2023-02-25T09:31:40;1.60;99.90
67901;DHT22;54700;51.796;10.956;2023-02-25T09:34:07;1.70;99.90
67901;DHT22;54700;51.796;10.956;2023-02-25T09:36:38;1.80;99.90
67901;DHT22;54700;51.796;10.956;2023-02-25T09:39:05;1.80;99.90
67901;DHT22;54700;51.796;10.956;2023-02-25T09:41:36;1.80;99.90
67901;DHT22;54700;51.796;10.956;2023-02-25T09:44:12;1.80;99.90
67901;DHT22;54700;51.796;10.956;2023-02-25T09:46:45;1.80;99.90
67901;DHT22;54700;51.796;10.956;2023-02-25T09:49:17;1.80;99.90
67901;DHT22;54700;51.796;10.956;2023-02-25T09:51:51;1.80;99.90
67901;DHT22;54700;51.796;10.956;2023-02-25T09:54:23;1.90;99.90
67901;DHT22;54700;51.796;10.956;2023-02-25T09:56:54;1.90;99.90
67901;DHT22;54700;51.796;10.956;2023-02-25T09:59:27;1.80;99.90
67901;DHT22;54700;51.796;10.956;2023-02-25T10:01:56;1.90;99.90
67901;DHT22;54700;51.796;10.956;2023-02-25T10:04:30;1.90;99.90
67901;DHT22;54700;51.796;10.956;2023-02-25T10:07:05;2.00;99.90
67901;DHT22;54700;51.796;10.956;2023-02-25T10:09:41;2.00;99.90
67901;DHT22;54700;51.796;10.956;2023-02-25T10:12:16;2.00;99.90
67901;DHT22;54700;51.796;10.956;2023-02-25T10:15:07;2.10;99.90
67901;DHT22;54700;51.796;10.956;2023-02-25T10:17:53;2.20;99.90
67901;DHT22;54700;51.796;10.956;2023-02-25T10:20:42;2.20;99.90
67901;DHT22;54700;51.796;10.956;2023-02-25T10:23:22;2.10;99.90
67901;DHT22;54700;51.796;10.956;2023-02-25T10:26:01;2.20;99.90
67901;DHT22;54700;51.796;10.956;2023-02-25T10:28:33;2.20;99.90
67901;DHT22;54700;51.796;10.956;2023-02-25T10:31:03;2.20;99.90
67901;DHT22;54700;51.796;10.956;2023-02-25T10:33:34;2.20;99.90
67901;DHT22;54700;51.796;10.956;2023-02-25T10:36:04;2.30;99.90
67901;DHT22;54700;51.796;10.956;2023-02-25T10:38:34;2.30;99.90
67901;DHT22;54700;51.796;10.956;2023-02-25T10:41:05;2.30;99.90
67901;DHT22;54700;51.796;10.956;2023-02-25T10:43:33;2.30;99.90
67901;DHT22;54700;51.796;10.956;2023-02-25T10:46:02;2.30;99.90
67901;DHT22;54700;51.796;10.956;2023-02-25T10:48:34;2.20;99.90
67901;DHT22;54700;51.796;10.956;2023-02-25T10:51:06;2.10;99.90
67901;DHT22;54700;51.796;10.956;2023-02-25T10:53:37;2.00;99.90
67901;DHT22;54700;51.796;10.956;2023-02-25T10:56:04;1.80;99.90
67901;DHT22;54700;51.796;10.956;2023-02-25T10:58:37;1.70;99.90
67901;DHT22;54700;51.796;10.956;2023-02-25T11:01:14;1.60;99.90
67901;DHT22;54700;51.796;10.956;2023-02-25T11:03:44;1.50;99.90
67901;DHT22;54700;51.796;10.956;2023-02-25T11:06:19;1.50;99.90
67901;DHT22;54700;51.796;10.956;2023-02-25T11:08:49;1.50;99.90
67901;DHT22;54700;51.796;10.956;2023-02-25T11:11:18;1.50;99.90
67901;DHT22;54700;51.796;10.956;2023-02-25T11:13:58;1.50;99.90
67901;DHT22;54700;51.796;10.956;2023-02-25T11:16:28;1.60;99.90
67901;DHT22;54700;51.796;10.956;2023-02-25T11:18:59;1.60;99.90
67901;DHT22;54700;51.796;10.956;2023-02-25T11:21:34;1.50;99.90
67901;DHT22;54700;51.796;10.956;2023-02-25T11:24:05;1.50;99.90
67901;DHT22;54700;51.796;10.956;2023-02-25T11:26:40;1.50;99.90
67901;DHT22;54700;51.796;10.956;2023-02-25T11:29:11;1.50;99.90
67901;DHT22;54700;51.796;10.956;2023-02-25T11:31:42;1.40;99.90
67901;DHT22;54700;51.796;10.956;2023-02-25T11:34:13;1.30;99.90
67901;DHT22;54700;51.796;10.956;2023-02-25T11:36:45;1.20;99.90
67901;DHT22;54700;51.796;10.956;2023-02-25T11:39:14;1.30;99.90
67901;DHT22;54700;51.796;10.956;2023-02-25T11:41:44;1.30;99.90
67901;DHT22;54700;51.796;10.956;2023-02-25T11:44:19;1.30;99.90
67901;DHT22;54700;51.796;10.956;2023-02-25T11:46:52;1.30;99.90
67901;DHT22;54700;51.796;10.956;2023-02-25T11:49:26;1.30;99.90
67901;DHT22;54700;51.796;10.956;2023-02-25T11:52:03;1.40;99.90
67901;DHT22;54700;51.796;10.956;2023-02-25T11:54:38;1.50;99.90
67901;DHT22;54700;51.796;10.956;2023-02-25T11:57:18;1.60;99.90
67901;DHT22;54700;51.796;10.956;2023-02-25T12:00:02;1.70;99.90
67901;DHT22;54700;51.796;10.956;2023-02-25T12:02:46;1.80;99.90
67901;DHT22;54700;51.796;10.956;2023-02-25T12:05:25;2.00;99.90
67901;DHT22;54700;51.796;10.956;2023-02-25T12:11:34;2.20;99.90
67901;DHT22;54700;51.796;10.956;2023-02-25T12:17:28;2.20;99.90
67901;DHT22;54700;51.796;10.956;2023-02-25T12:20:42;2.20;99.90
67901;DHT22;54700;51.796;10.956;2023-02-25T12:23:53;2.10;99.70
67901;DHT22;54700;51.796;10.956;2023-02-25T12:26:52;2.10;99.80
67901;DHT22;54700;51.796;10.956;2023-02-25T12:29:42;2.20;98.10
67901;DHT22;54700;51.796;10.956;2023-02-25T12:32:26;2.40;96.50
67901;DHT22;54700;51.796;10.956;2023-02-25T12:38:21;2.40;95.80
67901;DHT22;54700;51.796;10.956;2023-02-25T12:41:06;2.30;98.30
67901;DHT22;54700;51.796;10.956;2023-02-25T12:43:43;2.10;98.50
67901;DHT22;54700;51.796;10.956;2023-02-25T12:49:17;1.90;99.90
67901;DHT22;54700;51.796;10.956;2023-02-25T12:57:57;1.80;99.90
67901;DHT22;54700;51.796;10.956;2023-02-25T13:00:43;1.70;99.90
67901;DHT22;54700;51.796;10.956;2023-02-25T13:03:33;1.60;99.90
67901;DHT22;54700;51.796;10.956;2023-02-25T13:06:17;1.60;99.90
67901;DHT22;54700;51.796;10.956;2023-02-25T13:08:59;1.40;99.90
67901;DHT22;54700;51.796;10.956;2023-02-25T13:12:00;1.00;99.90
67901;DHT22;54700;51.796;10.956;2023-02-25T13:14:43;0.70;99.90
67901;DHT22;54700;51.796;10.956;2023-02-25T13:17:24;0.50;99.90
67901;DHT22;54700;51.796;10.956;2023-02-25T13:22:57;0.30;99.90
67901;DHT22;54700;51.796;10.956;2023-02-25T13:25:42;0.40;99.90
67901;DHT22;54700;51.796;10.956;2023-02-25T13:28:27;0.40;99.90
67901;DHT22;54700;51.796;10.956;2023-02-25T13:31:08;0.50;99.90
67901;DHT22;54700;51.796;10.956;2023-02-25T13:33:45;0.50;99.90
67901;DHT22;54700;51.796;10.956;2023-02-25T13:36:31;0.60;99.90
67901;DHT22;54700;51.796;10.956;2023-02-25T13:39:17;0.60;99.90
67901;DHT22;54700;51.796;10.956;2023-02-25T13:42:05;0.50;99.90
67901;DHT22;54700;51.796;10.956;2023-02-25T13:45:07;0.50;99.90
67901;DHT22;54700;51.796;10.956;2023-02-25T13:47:55;0.50;99.90
67901;DHT22;54700;51.796;10.956;2023-02-25T13:50:47;0.60;99.90
67901;DHT22;54700;51.796;10.956;2023-02-25T13:53:30;0.60;99.90
67901;DHT22;54700;51.796;10.956;2023-02-25T13:56:15;0.60;99.90
67901;DHT22;54700;51.796;10.956;2023-02-25T13:59:06;0.60;99.90
67901;DHT22;54700;51.796;10.956;2023-02-25T14:02:04;0.70;99.90
67901;DHT22;54700;51.796;10.956;2023-02-25T14:04:53;0.80;99.90
67901;DHT22;54700;51.796;10.956;2023-02-25T14:07:35;0.80;99.90
67901;DHT22;54700;51.796;10.956;2023-02-25T14:10:17;0.80;99.90
67901;DHT22;54700;51.796;10.956;2023-02-25T14:13:07;0.90;99.90
67901;DHT22;54700;51.796;10.956;2023-02-25T14:15:51;1.00;99.90
67901;DHT22;54700;51.796;10.956;2023-02-25T14:18:33;1.00;99.90
67901;DHT22;54700;51.796;10.956;2023-02-25T14:21:18;1.10;99.90
67901;DHT22;54700;51.796;10.956;2023-02-25T14:24:03;1.10;99.90
67901;DHT22;54700;51.796;10.956;2023-02-25T14:26:37;1.10;99.90
67901;DHT22;54700;51.796;10.956;2023-02-25T14:29:17;1.20;99.90
67901;DHT22;54700;51.796;10.956;2023-02-25T14:31:56;1.20;99.90
67901;DHT22;54700;51.796;10.956;2023-02-25T14:34:40;1.30;99.90
67901;DHT22;54700;51.796;10.956;2023-02-25T14:37:30;1.40;99.90
67901;DHT22;54700;51.796;10.956;2023-02-25T14:40:20;1.40;99.90
67901;DHT22;54700;51.796;10.956;2023-02-25T14:42:58;1.50;99.50
67901;DHT22;54700;51.796;10.956;2023-02-25T14:45:33;1.50;98.10
67901;DHT22;54700;51.796;10.956;2023-02-25T14:48:04;1.60;99.20
67901;DHT22;54700;51.796;10.956;2023-02-25T14:50:41;1.60;99.50
67901;DHT22;54700;51.796;10.956;2023-02-25T14:53:18;1.60;97.60
67901;DHT22;54700;51.796;10.956;2023-02-25T14:56:00;1.60;97.60
67901;DHT22;54700;51.796;10.956;2023-02-25T14:58:51;1.70;97.80
67901;DHT22;54700;51.796;10.956;2023-02-25T15:01:36;1.60;97.60
67901;DHT22;54700;51.796;10.956;2023-02-25T15:04:10;1.50;99.90
67901;DHT22;54700;51.796;10.956;2023-02-25T15:07:14;1.40;99.90
67901;DHT22;54700;51.796;10.956;2023-02-25T15:13:00;1.10;99.90
67901;DHT22;54700;51.796;10.956;2023-02-25T15:15:52;1.10;99.90
67901;DHT22;54700;51.796;10.956;2023-02-25T15:21:46;1.00;99.90
67901;DHT22;54700;51.796;10.956;2023-02-25T15:27:29;1.00;99.90
67901;DHT22;54700;51.796;10.956;2023-02-25T15:29:59;1.00;99.90
67901;DHT22;54700;51.796;10.956;2023-02-25T15:32:26;1.00;99.90
67901;DHT22;54700;51.796;10.956;2023-02-25T15:34:58;1.00;99.90
67901;DHT22;54700;51.796;10.956;2023-02-25T15:37:31;1.10;99.90
67901;DHT22;54700;51.796;10.956;2023-02-25T15:40:01;1.20;99.90
67901;DHT22;54700;51.796;10.956;2023-02-25T15:42:49;1.20;99.90
67901;DHT22;54700;51.796;10.956;2023-02-25T15:45:37;1.40;99.90
67901;DHT22;54700;51.796;10.956;2023-02-25T15:51:00;1.50;95.30
67901;DHT22;54700;51.796;10.956;2023-02-25T15:53:40;1.60;97.30
67901;DHT22;54700;51.796;10.956;2023-02-25T15:56:23;1.60;99.00
67901;DHT22;54700;51.796;10.956;2023-02-25T15:59:10;1.60;96.60
67901;DHT22;54700;51.796;10.956;2023-02-25T16:01:57;1.60;92.30
67901;DHT22;54700;51.796;10.956;2023-02-25T16:07:15;1.50;92.90
67901;DHT22;54700;51.796;10.956;2023-02-25T16:09:47;1.40;92.90
67901;DHT22;54700;51.796;10.956;2023-02-25T16:12:20;1.40;93.70
67901;DHT22;54700;51.796;10.956;2023-02-25T16:14:50;1.30;92.50
67901;DHT22;54700;51.796;10.956;2023-02-25T16:17:19;1.30;93.00
67901;DHT22;54700;51.796;10.956;2023-02-25T16:19:53;1.30;92.30
67901;DHT22;54700;51.796;10.956;2023-02-25T16:22:23;1.20;93.00
67901;DHT22;54700;51.796;10.956;2023-02-25T16:24:53;1.20;92.80
67901;DHT22;54700;51.796;10.956;2023-02-25T16:27:26;1.10;93.90
67901;DHT22;54700;51.796;10.956;2023-02-25T16:30:07;1.10;95.50
67901;DHT22;54700;51.796;10.956;2023-02-25T16:32:41;1.00;96.40
67901;DHT22;54700;51.796;10.956;2023-02-25T16:35:17;1.00;97.10
67901;DHT22;54700;51.796;10.956;2023-02-25T16:37:51;0.90;98.20
67901;DHT22;54700;51.796;10.956;2023-02-25T16:40:27;0.90;98.90
67901;DHT22;54700;51.796;10.956;2023-02-25T16:42:58;0.90;98.60